sensor_id;sensor_type;location;lat;lon;timestamp;P1;durP1;ratioP1;P2;durP2;ratioP2
22287;SDS011;11312;51.464;6.968;2023-11-21T00:01:39;7.55;;;3.47;;
22287;SDS011;11312;51.464;6.968;2023-11-21T00:04:05;6.18;;;2.35;;
22287;SDS011;11312;51.464;6.968;2023-11-21T00:06:32;5.35;;;2.80;;
22287;SDS011;11312;51.464;6.968;2023-11-21T00:08:59;3.70;;;1.83;;
22287;SDS011;11312;51.464;6.968;2023-11-21T00:11:24;5.35;;;2.45;;
22287;SDS011;11312;51.464;6.968;2023-11-21T00:13:50;4.70;;;2.00;;
22287;SDS011;11312;51.464;6.968;2023-11-21T00:16:16;7.72;;;3.13;;
22287;SDS011;11312;51.464;6.968;2023-11-21T00:18:42;6.60;;;2.63;;
22287;SDS011;11312;51.464;6.968;2023-11-21T00:21:08;3.78;;;1.83;;
22287;SDS011;11312;51.464;6.968;2023-11-21T00:23:34;6.65;;;3.00;;
22287;SDS011;11312;51.464;6.968;2023-11-21T00:26:00;4.88;;;2.03;;
22287;SDS011;11312;51.464;6.968;2023-11-21T00:28:25;7.88;;;3.25;;
22287;SDS011;11312;51.464;6.968;2023-11-21T00:30:51;5.95;;;2.13;;
22287;SDS011;11312;51.464;6.968;2023-11-21T00:33:17;4.80;;;2.33;;
22287;SDS011;11312;51.464;6.968;2023-11-21T00:35:42;5.70;;;2.35;;
22287;SDS011;11312;51.464;6.968;2023-11-21T00:38:08;4.40;;;2.17;;
22287;SDS011;11312;51.464;6.968;2023-11-21T00:40:34;5.85;;;2.63;;
22287;SDS011;11312;51.464;6.968;2023-11-21T00:42:59;6.32;;;2.63;;
22287;SDS011;11312;51.464;6.968;2023-11-21T00:45:25;5.88;;;2.70;;
22287;SDS011;11312;51.464;6.968;2023-11-21T00:47:51;7.43;;;3.67;;
22287;SDS011;11312;51.464;6.968;2023-11-21T00:50:17;6.55;;;2.42;;
22287;SDS011;11312;51.464;6.968;2023-11-21T00:52:42;4.75;;;2.15;;
22287;SDS011;11312;51.464;6.968;2023-11-21T00:55:08;7.25;;;2.80;;
22287;SDS011;11312;51.464;6.968;2023-11-21T00:57:35;5.72;;;2.38;;
22287;SDS011;11312;51.464;6.968;2023-11-21T01:00:00;5.80;;;2.20;;
22287;SDS011;11312;51.464;6.968;2023-11-21T01:02:26;4.65;;;1.92;;
22287;SDS011;11312;51.464;6.968;2023-11-21T01:04:52;5.30;;;2.47;;
22287;SDS011;11312;51.464;6.968;2023-11-21T01:07:17;4.00;;;1.75;;
22287;SDS011;11312;51.464;6.968;2023-11-21T01:09:45;7.97;;;2.85;;
22287;SDS011;11312;51.464;6.968;2023-11-21T01:12:11;13.48;;;4.30;;
22287;SDS011;11312;51.464;6.968;2023-11-21T01:14:36;3.88;;;1.60;;
22287;SDS011;11312;51.464;6.968;2023-11-21T01:17:02;10.07;;;2.58;;
22287;SDS011;11312;51.464;6.968;2023-11-21T01:19:29;4.10;;;1.90;;
22287;SDS011;11312;51.464;6.968;2023-11-21T01:21:55;5.07;;;2.20;;
22287;SDS011;11312;51.464;6.968;2023-11-21T01:24:22;4.50;;;2.15;;
22287;SDS011;11312;51.464;6.968;2023-11-21T01:26:48;5.00;;;2.28;;
22287;SDS011;11312;51.464;6.968;2023-11-21T01:29:14;5.93;;;2.45;;
22287;SDS011;11312;51.464;6.968;2023-11-21T01:31:40;3.72;;;1.95;;
22287;SDS011;11312;51.464;6.968;2023-11-21T01:34:06;4.70;;;2.13;;
22287;SDS011;11312;51.464;6.968;2023-11-21T01:36:32;4.80;;;2.20;;
22287;SDS011;11312;51.464;6.968;2023-11-21T01:38:58;4.18;;;2.13;;
22287;SDS011;11312;51.464;6.968;2023-11-21T01:41:25;4.47;;;2.13;;
22287;SDS011;11312;51.464;6.968;2023-11-21T01:43:52;5.38;;;2.38;;
22287;SDS011;11312;51.464;6.968;2023-11-21T01:46:18;4.75;;;1.88;;
22287;SDS011;11312;51.464;6.968;2023-11-21T01:48:45;2.72;;;1.50;;
22287;SDS011;11312;51.464;6.968;2023-11-21T01:51:13;3.85;;;1.90;;
22287;SDS011;11312;51.464;6.968;2023-11-21T01:53:38;5.85;;;2.40;;
22287;SDS011;11312;51.464;6.968;2023-11-21T01:56:05;4.78;;;2.47;;
22287;SDS011;11312;51.464;6.968;2023-11-21T01:58:33;4.57;;;2.20;;
22287;SDS011;11312;51.464;6.968;2023-11-21T02:00:59;5.03;;;2.33;;
22287;SDS011;11312;51.464;6.968;2023-11-21T02:03:24;3.72;;;1.60;;
22287;SDS011;11312;51.464;6.968;2023-11-21T02:05:52;3.40;;;1.95;;
22287;SDS011;11312;51.464;6.968;2023-11-21T02:08:18;2.78;;;1.55;;
22287;SDS011;11312;51.464;6.968;2023-11-21T02:10:44;6.20;;;2.58;;
22287;SDS011;11312;51.464;6.968;2023-11-21T02:13:10;2.10;;;1.38;;
22287;SDS011;11312;51.464;6.968;2023-11-21T02:15:36;3.22;;;1.58;;
22287;SDS011;11312;51.464;6.968;2023-11-21T02:18:03;5.93;;;2.00;;
22287;SDS011;11312;51.464;6.968;2023-11-21T02:20:31;5.13;;;1.98;;
22287;SDS011;11312;51.464;6.968;2023-11-21T02:23:00;6.57;;;1.80;;
22287;SDS011;11312;51.464;6.968;2023-11-21T02:25:26;5.22;;;2.25;;
22287;SDS011;11312;51.464;6.968;2023-11-21T02:27:54;5.57;;;2.30;;
22287;SDS011;11312;51.464;6.968;2023-11-21T02:30:23;6.93;;;3.13;;
22287;SDS011;11312;51.464;6.968;2023-11-21T02:32:58;6.30;;;2.28;;
22287;SDS011;11312;51.464;6.968;2023-11-21T02:35:24;4.63;;;2.00;;
22287;SDS011;11312;51.464;6.968;2023-11-21T02:37:53;3.85;;;1.83;;
22287;SDS011;11312;51.464;6.968;2023-11-21T02:40:19;3.15;;;1.60;;
22287;SDS011;11312;51.464;6.968;2023-11-21T02:42:49;14.00;;;2.78;;
22287;SDS011;11312;51.464;6.968;2023-11-21T02:45:19;4.28;;;1.77;;
22287;SDS011;11312;51.464;6.968;2023-11-21T02:47:46;6.95;;;2.72;;
22287;SDS011;11312;51.464;6.968;2023-11-21T02:50:12;6.13;;;2.58;;
22287;SDS011;11312;51.464;6.968;2023-11-21T02:52:38;3.30;;;1.60;;
22287;SDS011;11312;51.464;6.968;2023-11-21T02:55:05;4.00;;;1.77;;
22287;SDS011;11312;51.464;6.968;2023-11-21T02:57:32;3.92;;;1.75;;
22287;SDS011;11312;51.464;6.968;2023-11-21T02:59:58;4.93;;;2.00;;
22287;SDS011;11312;51.464;6.968;2023-11-21T03:02:24;5.75;;;2.60;;
22287;SDS011;11312;51.464;6.968;2023-11-21T03:04:50;4.72;;;2.17;;
22287;SDS011;11312;51.464;6.968;2023-11-21T03:07:16;3.95;;;2.10;;
22287;SDS011;11312;51.464;6.968;2023-11-21T03:09:44;4.10;;;2.08;;
22287;SDS011;11312;51.464;6.968;2023-11-21T03:12:10;3.85;;;2.08;;
22287;SDS011;11312;51.464;6.968;2023-11-21T03:14:40;3.58;;;1.67;;
22287;SDS011;11312;51.464;6.968;2023-11-21T03:17:06;4.18;;;2.08;;
22287;SDS011;11312;51.464;6.968;2023-11-21T03:19:32;5.75;;;2.60;;
22287;SDS011;11312;51.464;6.968;2023-11-21T03:21:58;3.92;;;1.80;;
22287;SDS011;11312;51.464;6.968;2023-11-21T03:24:23;26.60;;;3.65;;
22287;SDS011;11312;51.464;6.968;2023-11-21T03:26:49;4.05;;;1.95;;
22287;SDS011;11312;51.464;6.968;2023-11-21T03:29:16;4.15;;;2.05;;
22287;SDS011;11312;51.464;6.968;2023-11-21T03:31:41;3.67;;;1.80;;
22287;SDS011;11312;51.464;6.968;2023-11-21T03:34:09;5.95;;;1.90;;
22287;SDS011;11312;51.464;6.968;2023-11-21T03:36:39;3.08;;;1.75;;
22287;SDS011;11312;51.464;6.968;2023-11-21T03:39:05;3.83;;;1.85;;
22287;SDS011;11312;51.464;6.968;2023-11-21T03:41:30;5.18;;;2.13;;
22287;SDS011;11312;51.464;6.968;2023-11-21T03:43:56;3.70;;;1.70;;
22287;SDS011;11312;51.464;6.968;2023-11-21T03:46:21;7.57;;;2.42;;
22287;SDS011;11312;51.464;6.968;2023-11-21T03:48:47;4.70;;;1.90;;
22287;SDS011;11312;51.464;6.968;2023-11-21T03:51:13;2.92;;;1.52;;
22287;SDS011;11312;51.464;6.968;2023-11-21T03:53:38;7.15;;;2.40;;
22287;SDS011;11312;51.464;6.968;2023-11-21T03:56:04;4.80;;;2.22;;
22287;SDS011;11312;51.464;6.968;2023-11-21T03:58:30;4.53;;;2.50;;
22287;SDS011;11312;51.464;6.968;2023-11-21T04:00:56;3.75;;;1.73;;
22287;SDS011;11312;51.464;6.968;2023-11-21T04:03:21;5.18;;;1.90;;
22287;SDS011;11312;51.464;6.968;2023-11-21T04:05:47;5.68;;;2.10;;
22287;SDS011;11312;51.464;6.968;2023-11-21T04:08:12;3.70;;;1.80;;
22287;SDS011;11312;51.464;6.968;2023-11-21T04:10:38;3.50;;;1.73;;
22287;SDS011;11312;51.464;6.968;2023-11-21T04:13:04;3.92;;;1.70;;
22287;SDS011;11312;51.464;6.968;2023-11-21T04:15:31;6.40;;;2.85;;
22287;SDS011;11312;51.464;6.968;2023-11-21T04:17:57;9.02;;;2.63;;
22287;SDS011;11312;51.464;6.968;2023-11-21T04:20:23;5.38;;;1.95;;
22287;SDS011;11312;51.464;6.968;2023-11-21T04:22:49;5.25;;;2.05;;
22287;SDS011;11312;51.464;6.968;2023-11-21T04:25:15;3.58;;;1.67;;
22287;SDS011;11312;51.464;6.968;2023-11-21T04:27:41;5.88;;;2.55;;
22287;SDS011;11312;51.464;6.968;2023-11-21T04:30:09;2.83;;;1.52;;
22287;SDS011;11312;51.464;6.968;2023-11-21T04:32:35;5.75;;;2.97;;
22287;SDS011;11312;51.464;6.968;2023-11-21T04:35:01;2.78;;;1.52;;
22287;SDS011;11312;51.464;6.968;2023-11-21T04:37:27;5.05;;;1.98;;
22287;SDS011;11312;51.464;6.968;2023-11-21T04:39:52;3.67;;;1.70;;
22287;SDS011;11312;51.464;6.968;2023-11-21T04:42:18;3.03;;;1.70;;
22287;SDS011;11312;51.464;6.968;2023-11-21T04:44:44;6.78;;;2.55;;
22287;SDS011;11312;51.464;6.968;2023-11-21T04:47:09;3.65;;;1.65;;
22287;SDS011;11312;51.464;6.968;2023-11-21T04:49:35;6.28;;;2.67;;
22287;SDS011;11312;51.464;6.968;2023-11-21T04:52:01;26.80;;;2.00;;
22287;SDS011;11312;51.464;6.968;2023-11-21T04:54:28;5.88;;;1.80;;
22287;SDS011;11312;51.464;6.968;2023-11-21T04:56:55;4.63;;;2.03;;
22287;SDS011;11312;51.464;6.968;2023-11-21T04:59:21;5.00;;;2.10;;
22287;SDS011;11312;51.464;6.968;2023-11-21T05:01:50;3.88;;;2.30;;
22287;SDS011;11312;51.464;6.968;2023-11-21T05:04:15;2.47;;;1.42;;
22287;SDS011;11312;51.464;6.968;2023-11-21T05:06:41;3.75;;;1.98;;
22287;SDS011;11312;51.464;6.968;2023-11-21T05:09:07;3.22;;;1.60;;
22287;SDS011;11312;51.464;6.968;2023-11-21T05:11:36;5.53;;;2.15;;
22287;SDS011;11312;51.464;6.968;2023-11-21T05:14:03;3.20;;;1.65;;
22287;SDS011;11312;51.464;6.968;2023-11-21T05:16:30;6.65;;;2.33;;
22287;SDS011;11312;51.464;6.968;2023-11-21T05:18:56;4.22;;;1.90;;
22287;SDS011;11312;51.464;6.968;2023-11-21T05:21:25;4.75;;;2.15;;
22287;SDS011;11312;51.464;6.968;2023-11-21T05:23:52;3.78;;;1.80;;
22287;SDS011;11312;51.464;6.968;2023-11-21T05:26:17;5.05;;;2.15;;
22287;SDS011;11312;51.464;6.968;2023-11-21T05:28:43;7.25;;;2.28;;
22287;SDS011;11312;51.464;6.968;2023-11-21T05:31:08;4.40;;;1.80;;
22287;SDS011;11312;51.464;6.968;2023-11-21T05:33:35;5.25;;;2.08;;
22287;SDS011;11312;51.464;6.968;2023-11-21T05:36:01;4.00;;;1.80;;
22287;SDS011;11312;51.464;6.968;2023-11-21T05:38:27;4.85;;;2.10;;
22287;SDS011;11312;51.464;6.968;2023-11-21T05:40:53;4.72;;;2.03;;
22287;SDS011;11312;51.464;6.968;2023-11-21T05:43:19;8.80;;;2.35;;
22287;SDS011;11312;51.464;6.968;2023-11-21T05:45:45;6.30;;;2.55;;
22287;SDS011;11312;51.464;6.968;2023-11-21T05:48:10;4.35;;;1.92;;
22287;SDS011;11312;51.464;6.968;2023-11-21T05:50:36;5.40;;;2.28;;
22287;SDS011;11312;51.464;6.968;2023-11-21T05:53:03;4.47;;;2.10;;
22287;SDS011;11312;51.464;6.968;2023-11-21T05:55:29;7.20;;;2.70;;
22287;SDS011;11312;51.464;6.968;2023-11-21T05:57:54;6.18;;;2.80;;
22287;SDS011;11312;51.464;6.968;2023-11-21T06:00:20;3.65;;;1.80;;
22287;SDS011;11312;51.464;6.968;2023-11-21T06:02:50;6.70;;;2.65;;
22287;SDS011;11312;51.464;6.968;2023-11-21T06:05:18;6.22;;;2.50;;
22287;SDS011;11312;51.464;6.968;2023-11-21T06:07:45;4.30;;;2.03;;
22287;SDS011;11312;51.464;6.968;2023-11-21T06:10:11;3.60;;;1.70;;
22287;SDS011;11312;51.464;6.968;2023-11-21T06:12:39;4.80;;;2.15;;
22287;SDS011;11312;51.464;6.968;2023-11-21T06:15:07;4.18;;;2.00;;
22287;SDS011;11312;51.464;6.968;2023-11-21T06:17:35;5.70;;;2.53;;
22287;SDS011;11312;51.464;6.968;2023-11-21T06:20:04;4.32;;;2.10;;
22287;SDS011;11312;51.464;6.968;2023-11-21T06:22:44;5.15;;;2.15;;
22287;SDS011;11312;51.464;6.968;2023-11-21T06:25:12;8.63;;;2.85;;
22287;SDS011;11312;51.464;6.968;2023-11-21T06:27:39;6.32;;;2.45;;
22287;SDS011;11312;51.464;6.968;2023-11-21T06:30:06;6.10;;;2.42;;
22287;SDS011;11312;51.464;6.968;2023-11-21T06:32:34;6.13;;;2.30;;
22287;SDS011;11312;51.464;6.968;2023-11-21T06:35:01;9.68;;;2.85;;
22287;SDS011;11312;51.464;6.968;2023-11-21T06:37:27;4.50;;;2.10;;
22287;SDS011;11312;51.464;6.968;2023-11-21T06:39:54;4.90;;;2.13;;
22287;SDS011;11312;51.464;6.968;2023-11-21T06:42:20;3.55;;;1.70;;
22287;SDS011;11312;51.464;6.968;2023-11-21T06:44:46;3.42;;;1.60;;
22287;SDS011;11312;51.464;6.968;2023-11-21T06:47:13;6.53;;;2.63;;
22287;SDS011;11312;51.464;6.968;2023-11-21T06:49:38;4.18;;;2.00;;
22287;SDS011;11312;51.464;6.968;2023-11-21T06:52:04;7.97;;;3.25;;
22287;SDS011;11312;51.464;6.968;2023-11-21T06:54:30;5.50;;;2.08;;
22287;SDS011;11312;51.464;6.968;2023-11-21T06:56:56;5.03;;;2.15;;
22287;SDS011;11312;51.464;6.968;2023-11-21T06:59:23;25.20;;;2.97;;
22287;SDS011;11312;51.464;6.968;2023-11-21T07:01:49;4.45;;;1.88;;
22287;SDS011;11312;51.464;6.968;2023-11-21T07:04:14;5.05;;;2.17;;
22287;SDS011;11312;51.464;6.968;2023-11-21T07:06:40;5.05;;;2.28;;
22287;SDS011;11312;51.464;6.968;2023-11-21T07:09:06;8.38;;;3.42;;
22287;SDS011;11312;51.464;6.968;2023-11-21T07:11:33;4.40;;;1.95;;
22287;SDS011;11312;51.464;6.968;2023-11-21T07:14:00;2.88;;;1.60;;
22287;SDS011;11312;51.464;6.968;2023-11-21T07:16:33;5.25;;;1.95;;
22287;SDS011;11312;51.464;6.968;2023-11-21T07:19:02;7.72;;;2.58;;
22287;SDS011;11312;51.464;6.968;2023-11-21T07:21:31;6.05;;;2.58;;
22287;SDS011;11312;51.464;6.968;2023-11-21T07:23:57;6.50;;;2.67;;
22287;SDS011;11312;51.464;6.968;2023-11-21T07:26:23;7.75;;;3.00;;
22287;SDS011;11312;51.464;6.968;2023-11-21T07:28:50;6.63;;;2.00;;
22287;SDS011;11312;51.464;6.968;2023-11-21T07:31:16;8.30;;;3.13;;
22287;SDS011;11312;51.464;6.968;2023-11-21T07:33:41;10.43;;;3.88;;
22287;SDS011;11312;51.464;6.968;2023-11-21T07:36:07;9.25;;;3.33;;
22287;SDS011;11312;51.464;6.968;2023-11-21T07:38:33;5.20;;;2.28;;
22287;SDS011;11312;51.464;6.968;2023-11-21T07:40:59;8.10;;;4.07;;
22287;SDS011;11312;51.464;6.968;2023-11-21T07:43:26;7.55;;;2.88;;
22287;SDS011;11312;51.464;6.968;2023-11-21T07:45:52;7.55;;;3.15;;
22287;SDS011;11312;51.464;6.968;2023-11-21T07:48:17;7.38;;;2.90;;
22287;SDS011;11312;51.464;6.968;2023-11-21T07:50:43;6.18;;;2.60;;
22287;SDS011;11312;51.464;6.968;2023-11-21T07:53:08;19.25;;;4.50;;
22287;SDS011;11312;51.464;6.968;2023-11-21T07:55:34;6.78;;;3.30;;
22287;SDS011;11312;51.464;6.968;2023-11-21T07:58:01;9.15;;;4.07;;
22287;SDS011;11312;51.464;6.968;2023-11-21T08:00:27;11.55;;;4.70;;
22287;SDS011;11312;51.464;6.968;2023-11-21T08:02:55;19.77;;;6.80;;
22287;SDS011;11312;51.464;6.968;2023-11-21T08:05:20;17.63;;;6.10;;
22287;SDS011;11312;51.464;6.968;2023-11-21T08:07:46;8.73;;;3.35;;
22287;SDS011;11312;51.464;6.968;2023-11-21T08:10:12;9.80;;;3.90;;
22287;SDS011;11312;51.464;6.968;2023-11-21T08:12:37;9.48;;;3.22;;
22287;SDS011;11312;51.464;6.968;2023-11-21T08:15:03;8.38;;;3.63;;
22287;SDS011;11312;51.464;6.968;2023-11-21T08:17:30;14.13;;;4.55;;
22287;SDS011;11312;51.464;6.968;2023-11-21T08:19:58;11.27;;;5.00;;
22287;SDS011;11312;51.464;6.968;2023-11-21T08:22:23;20.10;;;5.45;;
22287;SDS011;11312;51.464;6.968;2023-11-21T08:24:50;8.23;;;3.47;;
22287;SDS011;11312;51.464;6.968;2023-11-21T08:27:15;14.00;;;5.97;;
22287;SDS011;11312;51.464;6.968;2023-11-21T08:29:41;18.67;;;7.05;;
22287;SDS011;11312;51.464;6.968;2023-11-21T08:32:07;5.55;;;2.38;;
22287;SDS011;11312;51.464;6.968;2023-11-21T08:34:33;3.20;;;1.83;;
22287;SDS011;11312;51.464;6.968;2023-11-21T08:36:59;4.43;;;2.20;;
22287;SDS011;11312;51.464;6.968;2023-11-21T08:39:25;2.63;;;1.52;;
22287;SDS011;11312;51.464;6.968;2023-11-21T08:41:51;7.15;;;2.10;;
22287;SDS011;11312;51.464;6.968;2023-11-21T08:44:17;9.32;;;3.60;;
22287;SDS011;11312;51.464;6.968;2023-11-21T08:46:46;9.80;;;4.18;;
22287;SDS011;11312;51.464;6.968;2023-11-21T08:49:19;20.75;;;5.25;;
22287;SDS011;11312;51.464;6.968;2023-11-21T08:51:44;18.15;;;3.55;;
22287;SDS011;11312;51.464;6.968;2023-11-21T08:54:10;10.45;;;4.35;;
22287;SDS011;11312;51.464;6.968;2023-11-21T08:56:37;14.95;;;5.63;;
22287;SDS011;11312;51.464;6.968;2023-11-21T08:59:02;10.75;;;4.45;;
22287;SDS011;11312;51.464;6.968;2023-11-21T09:01:29;11.55;;;4.22;;
22287;SDS011;11312;51.464;6.968;2023-11-21T09:03:57;12.57;;;4.78;;
22287;SDS011;11312;51.464;6.968;2023-11-21T09:06:23;12.80;;;6.30;;
22287;SDS011;11312;51.464;6.968;2023-11-21T09:08:49;8.40;;;3.30;;
22287;SDS011;11312;51.464;6.968;2023-11-21T09:11:15;8.43;;;3.40;;
22287;SDS011;11312;51.464;6.968;2023-11-21T09:13:42;10.88;;;4.85;;
22287;SDS011;11312;51.464;6.968;2023-11-21T09:16:07;8.63;;;3.55;;
22287;SDS011;11312;51.464;6.968;2023-11-21T09:18:33;12.10;;;4.38;;
22287;SDS011;11312;51.464;6.968;2023-11-21T09:21:00;16.05;;;6.25;;
22287;SDS011;11312;51.464;6.968;2023-11-21T09:23:25;9.18;;;3.97;;
22287;SDS011;11312;51.464;6.968;2023-11-21T09:25:51;17.05;;;5.40;;
22287;SDS011;11312;51.464;6.968;2023-11-21T09:28:19;9.13;;;3.53;;
22287;SDS011;11312;51.464;6.968;2023-11-21T09:30:45;8.52;;;3.78;;
22287;SDS011;11312;51.464;6.968;2023-11-21T09:33:10;9.43;;;4.43;;
22287;SDS011;11312;51.464;6.968;2023-11-21T09:35:39;9.85;;;3.80;;
22287;SDS011;11312;51.464;6.968;2023-11-21T09:38:04;6.65;;;3.47;;
22287;SDS011;11312;51.464;6.968;2023-11-21T09:40:36;18.58;;;4.25;;
22287;SDS011;11312;51.464;6.968;2023-11-21T09:43:06;11.85;;;4.85;;
22287;SDS011;11312;51.464;6.968;2023-11-21T09:45:39;9.52;;;4.35;;
22287;SDS011;11312;51.464;6.968;2023-11-21T09:48:05;12.82;;;5.18;;
22287;SDS011;11312;51.464;6.968;2023-11-21T09:50:32;7.28;;;3.15;;
22287;SDS011;11312;51.464;6.968;2023-11-21T09:55:44;11.65;;;4.72;;
22287;SDS011;11312;51.464;6.968;2023-11-21T09:58:11;8.77;;;4.55;;
22287;SDS011;11312;51.464;6.968;2023-11-21T10:00:45;18.02;;;6.78;;
22287;SDS011;11312;51.464;6.968;2023-11-21T10:03:12;17.55;;;4.57;;
22287;SDS011;11312;51.464;6.968;2023-11-21T10:05:39;17.27;;;5.80;;
22287;SDS011;11312;51.464;6.968;2023-11-21T10:08:09;13.10;;;5.10;;
22287;SDS011;11312;51.464;6.968;2023-11-21T10:10:36;13.27;;;5.43;;
22287;SDS011;11312;51.464;6.968;2023-11-21T10:13:03;8.57;;;3.75;;
22287;SDS011;11312;51.464;6.968;2023-11-21T10:15:33;8.85;;;3.90;;
22287;SDS011;11312;51.464;6.968;2023-11-21T10:18:00;21.75;;;5.65;;
22287;SDS011;11312;51.464;6.968;2023-11-21T10:20:31;13.20;;;5.13;;
22287;SDS011;11312;51.464;6.968;2023-11-21T10:23:02;11.85;;;4.55;;
22287;SDS011;11312;51.464;6.968;2023-11-21T10:25:29;9.95;;;4.57;;
22287;SDS011;11312;51.464;6.968;2023-11-21T10:28:00;8.93;;;3.58;;
22287;SDS011;11312;51.464;6.968;2023-11-21T10:30:37;9.75;;;3.35;;
22287;SDS011;11312;51.464;6.968;2023-11-21T10:33:04;9.35;;;4.03;;
22287;SDS011;11312;51.464;6.968;2023-11-21T10:38:12;8.95;;;3.85;;
22287;SDS011;11312;51.464;6.968;2023-11-21T10:40:42;10.20;;;3.53;;
22287;SDS011;11312;51.464;6.968;2023-11-21T10:43:11;10.48;;;5.40;;
22287;SDS011;11312;51.464;6.968;2023-11-21T10:45:38;8.57;;;3.38;;
22287;SDS011;11312;51.464;6.968;2023-11-21T10:48:07;15.20;;;6.35;;
22287;SDS011;11312;51.464;6.968;2023-11-21T10:50:36;12.52;;;4.10;;
22287;SDS011;11312;51.464;6.968;2023-11-21T10:53:05;12.73;;;4.57;;
22287;SDS011;11312;51.464;6.968;2023-11-21T10:55:31;9.73;;;3.30;;
22287;SDS011;11312;51.464;6.968;2023-11-21T10:57:58;24.50;;;5.25;;
22287;SDS011;11312;51.464;6.968;2023-11-21T11:00:34;11.18;;;4.47;;
22287;SDS011;11312;51.464;6.968;2023-11-21T11:02:59;13.18;;;4.75;;
22287;SDS011;11312;51.464;6.968;2023-11-21T11:05:26;20.00;;;3.25;;
22287;SDS011;11312;51.464;6.968;2023-11-21T11:08:04;10.77;;;3.60;;
22287;SDS011;11312;51.464;6.968;2023-11-21T11:10:33;10.70;;;4.32;;
22287;SDS011;11312;51.464;6.968;2023-11-21T11:12:59;7.35;;;3.58;;
22287;SDS011;11312;51.464;6.968;2023-11-21T11:15:26;7.05;;;2.97;;
22287;SDS011;11312;51.464;6.968;2023-11-21T11:17:52;12.45;;;5.35;;
22287;SDS011;11312;51.464;6.968;2023-11-21T11:20:29;7.68;;;3.42;;
22287;SDS011;11312;51.464;6.968;2023-11-21T11:23:16;7.07;;;2.83;;
22287;SDS011;11312;51.464;6.968;2023-11-21T11:26:04;10.75;;;2.97;;
22287;SDS011;11312;51.464;6.968;2023-11-21T11:28:38;31.95;;;5.65;;
22287;SDS011;11312;51.464;6.968;2023-11-21T11:31:24;9.65;;;3.40;;
22287;SDS011;11312;51.464;6.968;2023-11-21T11:34:26;12.48;;;4.47;;
22287;SDS011;11312;51.464;6.968;2023-11-21T11:37:00;6.05;;;2.78;;
22287;SDS011;11312;51.464;6.968;2023-11-21T11:39:38;13.55;;;5.90;;
22287;SDS011;11312;51.464;6.968;2023-11-21T11:42:10;7.05;;;2.95;;
22287;SDS011;11312;51.464;6.968;2023-11-21T11:47:14;7.25;;;2.92;;
22287;SDS011;11312;51.464;6.968;2023-11-21T11:52:36;8.35;;;3.58;;
22287;SDS011;11312;51.464;6.968;2023-11-21T11:55:12;7.43;;;3.85;;
22287;SDS011;11312;51.464;6.968;2023-11-21T11:57:40;6.60;;;2.20;;
22287;SDS011;11312;51.464;6.968;2023-11-21T12:02:45;7.65;;;3.03;;
22287;SDS011;11312;51.464;6.968;2023-11-21T12:05:16;9.00;;;4.32;;
22287;SDS011;11312;51.464;6.968;2023-11-21T12:07:50;6.32;;;2.80;;
22287;SDS011;11312;51.464;6.968;2023-11-21T12:10:20;8.35;;;3.22;;
22287;SDS011;11312;51.464;6.968;2023-11-21T12:12:53;8.23;;;3.47;;
22287;SDS011;11312;51.464;6.968;2023-11-21T12:15:26;8.25;;;3.00;;
22287;SDS011;11312;51.464;6.968;2023-11-21T12:17:55;8.90;;;2.35;;
22287;SDS011;11312;51.464;6.968;2023-11-21T12:20:22;6.40;;;2.88;;
22287;SDS011;11312;51.464;6.968;2023-11-21T12:22:53;5.78;;;2.35;;
22287;SDS011;11312;51.464;6.968;2023-11-21T12:25:23;3.67;;;1.95;;
22287;SDS011;11312;51.464;6.968;2023-11-21T12:27:53;8.32;;;2.72;;
22287;SDS011;11312;51.464;6.968;2023-11-21T12:30:20;8.70;;;3.20;;
22287;SDS011;11312;51.464;6.968;2023-11-21T12:32:48;13.40;;;4.75;;
22287;SDS011;11312;51.464;6.968;2023-11-21T12:35:16;6.57;;;2.70;;
22287;SDS011;11312;51.464;6.968;2023-11-21T12:37:44;8.95;;;3.28;;
22287;SDS011;11312;51.464;6.968;2023-11-21T12:40:10;7.68;;;2.58;;
22287;SDS011;11312;51.464;6.968;2023-11-21T12:42:39;8.23;;;3.00;;
22287;SDS011;11312;51.464;6.968;2023-11-21T12:47:42;7.10;;;3.15;;
22287;SDS011;11312;51.464;6.968;2023-11-21T12:50:09;7.65;;;3.35;;
22287;SDS011;11312;51.464;6.968;2023-11-21T12:52:42;10.77;;;3.42;;
22287;SDS011;11312;51.464;6.968;2023-11-21T12:55:13;7.25;;;2.80;;
22287;SDS011;11312;51.464;6.968;2023-11-21T12:57:41;10.73;;;4.03;;
22287;SDS011;11312;51.464;6.968;2023-11-21T13:00:08;10.75;;;4.13;;
22287;SDS011;11312;51.464;6.968;2023-11-21T13:02:51;9.63;;;3.60;;
22287;SDS011;11312;51.464;6.968;2023-11-21T13:05:35;43.95;;;4.97;;
22287;SDS011;11312;51.464;6.968;2023-11-21T13:08:06;11.65;;;4.03;;
22287;SDS011;11312;51.464;6.968;2023-11-21T13:10:34;8.05;;;3.28;;
22287;SDS011;11312;51.464;6.968;2023-11-21T13:13:05;8.27;;;3.35;;
22287;SDS011;11312;51.464;6.968;2023-11-21T13:15:33;9.00;;;3.45;;
22287;SDS011;11312;51.464;6.968;2023-11-21T13:18:01;4.70;;;1.73;;
22287;SDS011;11312;51.464;6.968;2023-11-21T13:20:27;5.20;;;2.40;;
22287;SDS011;11312;51.464;6.968;2023-11-21T13:22:57;6.00;;;2.97;;
22287;SDS011;11312;51.464;6.968;2023-11-21T13:25:24;10.35;;;4.05;;
22287;SDS011;11312;51.464;6.968;2023-11-21T13:27:56;8.07;;;2.40;;
22287;SDS011;11312;51.464;6.968;2023-11-21T13:30:24;5.88;;;2.45;;
22287;SDS011;11312;51.464;6.968;2023-11-21T13:32:58;6.22;;;2.63;;
22287;SDS011;11312;51.464;6.968;2023-11-21T13:35:32;6.47;;;2.60;;
22287;SDS011;11312;51.464;6.968;2023-11-21T13:38:08;4.18;;;2.17;;
22287;SDS011;11312;51.464;6.968;2023-11-21T13:40:35;4.57;;;2.28;;
22287;SDS011;11312;51.464;6.968;2023-11-21T13:43:10;5.32;;;2.40;;
22287;SDS011;11312;51.464;6.968;2023-11-21T13:45:37;6.82;;;2.95;;
22287;SDS011;11312;51.464;6.968;2023-11-21T13:48:07;4.05;;;1.88;;
22287;SDS011;11312;51.464;6.968;2023-11-21T13:50:41;3.08;;;1.65;;
22287;SDS011;11312;51.464;6.968;2023-11-21T13:53:22;5.80;;;2.47;;
22287;SDS011;11312;51.464;6.968;2023-11-21T13:55:49;5.18;;;2.40;;
22287;SDS011;11312;51.464;6.968;2023-11-21T13:58:20;4.25;;;1.83;;
22287;SDS011;11312;51.464;6.968;2023-11-21T14:00:57;4.03;;;2.13;;
22287;SDS011;11312;51.464;6.968;2023-11-21T14:03:23;5.00;;;2.35;;
22287;SDS011;11312;51.464;6.968;2023-11-21T14:05:57;6.47;;;2.35;;
22287;SDS011;11312;51.464;6.968;2023-11-21T14:08:25;5.20;;;2.22;;
22287;SDS011;11312;51.464;6.968;2023-11-21T14:10:54;7.22;;;2.53;;
22287;SDS011;11312;51.464;6.968;2023-11-21T14:13:24;5.05;;;2.40;;
22287;SDS011;11312;51.464;6.968;2023-11-21T14:15:50;6.82;;;2.50;;
22287;SDS011;11312;51.464;6.968;2023-11-21T14:18:23;3.58;;;1.75;;
22287;SDS011;11312;51.464;6.968;2023-11-21T14:20:57;4.70;;;2.03;;
22287;SDS011;11312;51.464;6.968;2023-11-21T14:23:23;5.50;;;2.72;;
22287;SDS011;11312;51.464;6.968;2023-11-21T14:25:49;2.97;;;1.60;;
22287;SDS011;11312;51.464;6.968;2023-11-21T14:28:15;3.72;;;1.60;;
22287;SDS011;11312;51.464;6.968;2023-11-21T14:30:41;2.95;;;1.58;;
22287;SDS011;11312;51.464;6.968;2023-11-21T14:33:07;5.72;;;2.35;;
22287;SDS011;11312;51.464;6.968;2023-11-21T14:35:35;5.18;;;2.10;;
22287;SDS011;11312;51.464;6.968;2023-11-21T14:38:01;5.97;;;2.42;;
22287;SDS011;11312;51.464;6.968;2023-11-21T14:40:30;3.70;;;1.67;;
22287;SDS011;11312;51.464;6.968;2023-11-21T14:42:59;3.53;;;1.83;;
22287;SDS011;11312;51.464;6.968;2023-11-21T14:45:25;2.72;;;1.60;;
22287;SDS011;11312;51.464;6.968;2023-11-21T14:47:52;3.92;;;2.08;;
22287;SDS011;11312;51.464;6.968;2023-11-21T14:50:29;5.47;;;2.78;;
22287;SDS011;11312;51.464;6.968;2023-11-21T14:53:14;4.97;;;2.30;;
22287;SDS011;11312;51.464;6.968;2023-11-21T14:55:40;3.08;;;1.48;;
22287;SDS011;11312;51.464;6.968;2023-11-21T14:58:06;3.67;;;1.63;;
22287;SDS011;11312;51.464;6.968;2023-11-21T15:00:37;3.17;;;1.85;;
22287;SDS011;11312;51.464;6.968;2023-11-21T15:03:09;2.53;;;1.45;;
22287;SDS011;11312;51.464;6.968;2023-11-21T15:05:36;4.50;;;1.60;;